Time;durP1;ratioP1;P1;durP2;ratioP2;P2;SDS_P1;SDS_P2;PMS_P1;PMS_P2;Temp;Humidity;BMP_temperature;BMP_pressure;BME280_temperature;BME280_humidity;BME280_pressure;Samples;Min_cycle;Max_cycle;Signal;HPM_P1;HPM_P2
2022/10/04 03:01:42;;;;;;;;;;;8.90;99.90;;;;;;5606663;23;19958;-69
2022/10/04 03:04:11;;;;;;;;;;;8.80;99.90;;;;;;4971403;28;20012;-70
2022/10/04 03:06:38;;;;;;;;;;;8.80;99.90;;;;;;4987695;28;20400;-71
2022/10/04 03:09:05;;;;;;;;;;;8.80;99.90;;;;;;4972692;28;19973;-70
2022/10/04 03:11:34;;;;;;;;;;;8.70;99.90;;;;;;4972441;28;20025;-69
2022/10/04 03:14:02;;;;;;;;;;;8.60;99.90;;;;;;4972668;28;19981;-68
2022/10/04 03:16:33;;;;;;;;;;;8.60;99.90;;;;;;4972842;28;20353;-69
2022/10/04 03:19:02;;;;;;;;;;;8.60;99.90;;;;;;4972099;28;19981;-69
2022/10/04 03:21:28;;;;;;;;;;;8.60;99.90;;;;;;4972169;28;20017;-69
2022/10/04 03:23:55;;;;;;;;;;;8.60;99.90;;;;;;4973127;28;19958;-69
2022/10/04 03:26:27;;;;;;;;;;;8.60;99.90;;;;;;4971804;28;19978;-69
2022/10/04 03:28:55;;;;;;;;;;;8.60;99.90;;;;;;4972284;28;19969;-69
2022/10/04 03:31:23;;;;;;;;;;;8.50;99.90;;;;;;4972192;28;19926;-69
2022/10/04 03:33:49;;;;;;;;;;;8.50;99.90;;;;;;4971861;28;20376;-67
2022/10/04 03:36:18;;;;;;;;;;;8.50;99.90;;;;;;4971988;28;20012;-69
2022/10/04 03:38:46;;;;;;;;;;;8.50;99.90;;;;;;4972109;28;19943;-71
2022/10/04 03:41:15;;;;;;;;;;;8.40;99.90;;;;;;4971809;28;19926;-69
2022/10/04 03:43:44;;;;;;;;;;;8.40;99.90;;;;;;4972788;28;19933;-70
2022/10/04 03:46:11;;;;;;;;;;;8.40;99.90;;;;;;4976048;28;20016;-68
2022/10/04 03:48:39;;;;;;;;;;;8.40;99.90;;;;;;4975925;28;20024;-70
2022/10/04 03:51:07;;;;;;;;;;;8.40;99.90;;;;;;4975297;28;20000;-69
2022/10/04 03:53:38;;;;;;;;;;;8.30;99.90;;;;;;4975644;28;19976;-71
2022/10/04 03:56:09;;;;;;;;;;;8.40;99.90;;;;;;4975575;28;19926;-69
2022/10/04 03:58:36;;;;;;;;;;;8.30;99.90;;;;;;4956247;29;20010;-69
2022/10/04 04:01:07;;;;;;;;;;;8.30;99.90;;;;;;4955885;28;20024;-70
2022/10/04 04:03:38;;;;;;;;;;;8.40;99.90;;;;;;4972371;28;19980;-69
2022/10/04 04:06:09;;;;;;;;;;;8.40;99.90;;;;;;4956116;29;19926;-69
2022/10/04 04:08:41;;;;;;;;;;;8.40;99.90;;;;;;4956179;29;20021;-70
2022/10/04 04:11:12;;;;;;;;;;;8.40;99.90;;;;;;4957016;28;20015;-70
2022/10/04 04:13:44;;;;;;;;;;;8.40;99.90;;;;;;4955937;29;19965;-70
2022/10/04 04:16:11;;;;;;;;;;;8.30;99.90;;;;;;4956292;29;19927;-69
2022/10/04 04:18:39;;;;;;;;;;;8.20;99.90;;;;;;4955862;29;19962;-70
2022/10/04 04:21:06;;;;;;;;;;;8.20;99.90;;;;;;4956813;28;20313;-70
2022/10/04 04:23:35;;;;;;;;;;;8.10;99.90;;;;;;4955689;29;19930;-68
2022/10/04 04:26:14;;;;;;;;;;;8.10;99.90;;;;;;4957037;29;19926;-70
2022/10/04 04:28:42;;;;;;;;;;;8.10;99.90;;;;;;4957010;29;19927;-69
2022/10/04 04:31:13;;;;;;;;;;;8.10;99.90;;;;;;4955644;28;19927;-70
2022/10/04 04:33:43;;;;;;;;;;;8.10;99.90;;;;;;4955765;29;19926;-69
2022/10/04 04:36:11;;;;;;;;;;;8.10;99.90;;;;;;4955858;29;19950;-69
2022/10/04 04:39:32;;;;;;;;;;;8.00;99.90;;;;;;4956003;29;19926;-69
2022/10/04 04:41:28;;;;;;;;;;;8.10;99.90;;;;;;4955559;28;19926;-69
2022/10/04 04:43:55;;;;;;;;;;;8.00;99.90;;;;;;4955290;29;19934;-70
2022/10/04 04:46:21;;;;;;;;;;;8.00;99.90;;;;;;4955713;29;20452;-70
2022/10/04 04:48:49;;;;;;;;;;;8.00;99.90;;;;;;4957752;28;19934;-69
2022/10/04 04:51:19;;;;;;;;;;;8.00;99.90;;;;;;4953829;28;19931;-69
2022/10/04 04:53:47;;;;;;;;;;;8.00;99.90;;;;;;4970660;28;19926;-68
2022/10/04 04:56:18;;;;;;;;;;;8.00;99.90;;;;;;4973974;28;19926;-70
2022/10/04 04:58:47;;;;;;;;;;;8.10;99.90;;;;;;4973549;28;20352;-69
2022/10/04 05:01:16;;;;;;;;;;;8.00;99.90;;;;;;4971914;28;19930;-69
2022/10/04 05:03:43;;;;;;;;;;;7.90;99.90;;;;;;4995324;28;19926;-70
2022/10/04 05:06:21;;;;;;;;;;;8.00;99.90;;;;;;4989490;28;19971;-70
2022/10/04 05:08:49;;;;;;;;;;;8.10;99.90;;;;;;4973485;28;20464;-70
2022/10/04 05:11:18;;;;;;;;;;;8.00;99.90;;;;;;4966637;28;19930;-70
2022/10/04 05:13:49;;;;;;;;;;;8.10;99.90;;;;;;4954171;29;19965;-70
2022/10/04 05:16:19;;;;;;;;;;;8.10;99.90;;;;;;4954312;29;19926;-69
2022/10/04 05:18:46;;;;;;;;;;;8.10;99.90;;;;;;4954147;29;19927;-70
2022/10/04 05:21:16;;;;;;;;;;;8.10;99.90;;;;;;4971552;28;19926;-70
2022/10/04 05:23:42;;;;;;;;;;;8.10;99.90;;;;;;5005357;28;19933;-69
2022/10/04 05:26:10;;;;;;;;;;;8.20;99.90;;;;;;4973283;28;19937;-69
2022/10/04 05:28:37;;;;;;;;;;;8.10;99.90;;;;;;4973066;28;19933;-70
2022/10/04 05:31:12;;;;;;;;;;;8.10;99.90;;;;;;4972919;28;19958;-70
2022/10/04 05:33:45;;;;;;;;;;;8.20;99.90;;;;;;4972767;28;20020;-70
2022/10/04 05:36:25;;;;;;;;;;;8.20;99.90;;;;;;4971863;28;20385;-70
2022/10/04 05:38:55;;;;;;;;;;;8.20;99.90;;;;;;4967661;28;19926;-71
2022/10/04 05:41:25;;;;;;;;;;;8.20;99.90;;;;;;4972583;28;19926;-71
2022/10/04 05:43:52;;;;;;;;;;;8.10;99.90;;;;;;4972453;28;19933;-70
2022/10/04 05:46:25;;;;;;;;;;;8.20;99.90;;;;;;4967517;28;19930;-69
2022/10/04 05:48:53;;;;;;;;;;;8.40;99.90;;;;;;4977269;28;19926;-69
2022/10/04 05:51:22;;;;;;;;;;;8.30;99.90;;;;;;4980787;28;19933;-69
2022/10/04 05:53:49;;;;;;;;;;;8.30;99.90;;;;;;4951662;29;20025;-69
2022/10/04 05:56:31;;;;;;;;;;;8.30;99.90;;;;;;4951653;29;19966;-70
2022/10/04 05:59:02;;;;;;;;;;;8.30;99.90;;;;;;4947467;29;19926;-69
2022/10/04 06:01:38;;;;;;;;;;;8.20;99.90;;;;;;4951865;28;19985;-70
2022/10/04 06:04:12;;;;;;;;;;;8.30;99.90;;;;;;4957118;28;20046;-69
2022/10/04 06:06:42;;;;;;;;;;;8.30;99.90;;;;;;4972148;28;19941;-69
2022/10/04 06:09:12;;;;;;;;;;;8.30;99.90;;;;;;4972120;28;19956;-69
2022/10/04 06:11:44;;;;;;;;;;;8.30;99.90;;;;;;4960599;28;19942;-70
2022/10/04 06:14:30;;;;;;;;;;;8.40;99.90;;;;;;4952906;29;19927;-69
2022/10/04 06:17:12;;;;;;;;;;;8.40;99.90;;;;;;4952778;29;19926;-70
2022/10/04 06:20:02;;;;;;;;;;;8.40;99.90;;;;;;4952877;29;19927;-70
2022/10/04 06:22:31;;;;;;;;;;;8.40;99.90;;;;;;4952648;29;19926;-70
2022/10/04 06:25:00;;;;;;;;;;;8.50;99.90;;;;;;4952743;28;19941;-70
2022/10/04 06:27:30;;;;;;;;;;;8.50;99.90;;;;;;4952317;28;19926;-70
2022/10/04 06:30:00;;;;;;;;;;;8.50;99.90;;;;;;4962978;28;20029;-70
2022/10/04 06:32:37;;;;;;;;;;;8.50;99.90;;;;;;4971708;28;20336;-70
2022/10/04 06:35:17;;;;;;;;;;;8.60;99.90;;;;;;4972071;28;20345;-69
2022/10/04 06:37:55;;;;;;;;;;;8.60;99.90;;;;;;4971486;28;19930;-70
2022/10/04 06:40:32;;;;;;;;;;;8.70;99.90;;;;;;4968342;28;19988;-70
2022/10/04 06:43:07;;;;;;;;;;;8.80;99.90;;;;;;4971121;28;19988;-70
2022/10/04 06:45:43;;;;;;;;;;;8.80;99.90;;;;;;4969745;28;19927;-71
2022/10/04 06:48:21;;;;;;;;;;;8.90;99.90;;;;;;4960404;28;19931;-71
2022/10/04 06:50:50;;;;;;;;;;;9.00;99.90;;;;;;4971276;28;19981;-70
2022/10/04 06:53:26;;;;;;;;;;;9.10;99.90;;;;;;4971389;28;20376;-70
2022/10/04 06:56:07;;;;;;;;;;;9.30;99.90;;;;;;4971692;28;19926;-71
2022/10/04 06:58:58;;;;;;;;;;;9.30;99.90;;;;;;4962791;28;20306;-69
2022/10/04 07:01:28;;;;;;;;;;;9.40;99.90;;;;;;4971332;28;19930;-68
2022/10/04 07:04:01;;;;;;;;;;;9.40;99.90;;;;;;4970620;28;19926;-71
2022/10/04 07:06:30;;;;;;;;;;;9.50;99.90;;;;;;4971553;28;19926;-68
2022/10/04 07:09:01;;;;;;;;;;;9.60;99.90;;;;;;4970997;28;19926;-71
2022/10/04 07:11:32;;;;;;;;;;;9.60;99.90;;;;;;4970897;28;19948;-68
2022/10/04 07:14:00;;;;;;;;;;;9.60;99.90;;;;;;4971953;28;20393;-68
2022/10/04 07:16:32;;;;;;;;;;;9.70;99.90;;;;;;4972143;28;19933;-68
2022/10/04 07:19:08;;;;;;;;;;;9.70;99.90;;;;;;4971510;28;19926;-68
2022/10/04 07:21:39;;;;;;;;;;;9.80;99.90;;;;;;4972273;28;19930;-68
2022/10/04 07:24:09;;;;;;;;;;;9.90;99.90;;;;;;4971630;28;19933;-68
2022/10/04 07:26:38;;;;;;;;;;;9.90;99.90;;;;;;4971794;28;19981;-68
2022/10/04 07:29:22;;;;;;;;;;;10.00;99.90;;;;;;4971310;28;19926;-67
2022/10/04 07:31:50;;;;;;;;;;;10.00;99.90;;;;;;4971886;28;19992;-69
2022/10/04 07:34:22;;;;;;;;;;;10.20;99.90;;;;;;4971827;28;20024;-68
2022/10/04 07:36:50;;;;;;;;;;;10.20;99.90;;;;;;4972131;28;19927;-66
2022/10/04 07:39:18;;;;;;;;;;;10.40;99.90;;;;;;4971943;28;20345;-67
2022/10/04 07:41:48;;;;;;;;;;;10.50;99.90;;;;;;4957862;28;20024;-68
2022/10/04 07:44:17;;;;;;;;;;;10.60;99.90;;;;;;4952123;29;19926;-68
2022/10/04 07:46:46;;;;;;;;;;;10.70;99.90;;;;;;4953836;29;19933;-67
2022/10/04 07:49:14;;;;;;;;;;;10.80;99.90;;;;;;4953595;29;19990;-67
2022/10/04 07:51:44;;;;;;;;;;;11.00;99.90;;;;;;4952621;29;19934;-68
2022/10/04 07:54:13;;;;;;;;;;;11.20;99.90;;;;;;4953548;29;19927;-66
2022/10/04 07:56:43;;;;;;;;;;;11.30;99.90;;;;;;4952066;29;20480;-67
2022/10/04 07:59:18;;;;;;;;;;;11.40;99.90;;;;;;4952353;29;19934;-67
2022/10/04 08:01:47;;;;;;;;;;;11.50;99.90;;;;;;4952195;29;20295;-68
2022/10/04 08:04:18;;;;;;;;;;;11.60;99.90;;;;;;4952171;29;20475;-67
2022/10/04 08:06:52;;;;;;;;;;;11.70;99.90;;;;;;4952881;28;19927;-64
2022/10/04 08:09:23;;;;;;;;;;;11.70;99.90;;;;;;4952087;29;19957;-67
2022/10/04 08:11:53;;;;;;;;;;;11.80;99.90;;;;;;4952660;29;20644;-68
2022/10/04 08:14:36;;;;;;;;;;;11.70;99.90;;;;;;4967721;28;19930;-68
2022/10/04 08:17:11;;;;;;;;;;;11.70;99.90;;;;;;4971787;28;19981;-65
2022/10/04 08:19:44;;;;;;;;;;;11.80;99.90;;;;;;4971814;28;19926;-65
2022/10/04 08:22:18;;;;;;;;;;;11.90;99.90;;;;;;4971753;28;20017;-67
2022/10/04 08:24:54;;;;;;;;;;;11.90;99.90;;;;;;4971786;28;19932;-64
2022/10/04 08:27:33;;;;;;;;;;;12.00;99.90;;;;;;4971421;28;19930;-66
2022/10/04 08:30:03;;;;;;;;;;;12.10;99.90;;;;;;4971206;28;19934;-68
2022/10/04 08:32:32;;;;;;;;;;;12.20;99.90;;;;;;4973928;28;19936;-68
2022/10/04 08:35:08;;;;;;;;;;;12.30;99.90;;;;;;4974606;28;20365;-68
2022/10/04 08:37:41;;;;;;;;;;;12.40;99.90;;;;;;4974373;28;19926;-68
2022/10/04 08:40:32;;;;;;;;;;;12.50;99.90;;;;;;4974393;28;20032;-68
2022/10/04 08:43:07;;;;;;;;;;;12.50;99.90;;;;;;4965766;28;19941;-69
2022/10/04 08:46:08;;;;;;;;;;;12.60;99.90;;;;;;4974611;28;19964;-68
2022/10/04 08:48:57;;;;;;;;;;;12.70;99.90;;;;;;4974595;28;19926;-68
2022/10/04 08:51:43;;;;;;;;;;;12.80;99.90;;;;;;4974466;28;19926;-68
2022/10/04 08:54:28;;;;;;;;;;;12.80;99.90;;;;;;4974058;28;19949;-68
2022/10/04 08:57:04;;;;;;;;;;;12.90;99.90;;;;;;4974469;28;19960;-68
2022/10/04 08:59:56;;;;;;;;;;;13.00;99.90;;;;;;4974118;28;19926;-69
2022/10/04 09:02:43;;;;;;;;;;;13.10;99.90;;;;;;4955084;28;19926;-68
2022/10/04 09:05:25;;;;;;;;;;;13.20;99.90;;;;;;4974095;28;20349;-69
2022/10/04 09:08:03;;;;;;;;;;;13.20;99.90;;;;;;4974458;28;19933;-66
2022/10/04 09:10:41;;;;;;;;;;;13.30;99.90;;;;;;4974341;28;19926;-68
2022/10/04 09:13:21;;;;;;;;;;;13.40;99.90;;;;;;4976648;28;19926;-68
2022/10/04 09:15:51;;;;;;;;;;;13.50;99.90;;;;;;4955598;29;20390;-67
2022/10/04 09:18:22;;;;;;;;;;;13.60;99.90;;;;;;4979427;28;19926;-67
2022/10/04 09:20:57;;;;;;;;;;;13.80;99.90;;;;;;4992963;28;19926;-67
2022/10/04 09:23:45;;;;;;;;;;;13.80;99.90;;;;;;4993069;28;20460;-67
2022/10/04 09:26:19;;;;;;;;;;;14.00;99.90;;;;;;4993514;28;19926;-67
2022/10/04 09:29:05;;;;;;;;;;;14.00;99.90;;;;;;4993218;28;20419;-67
2022/10/04 09:31:58;;;;;;;;;;;14.10;99.90;;;;;;4993445;28;19930;-67
2022/10/04 09:34:32;;;;;;;;;;;14.30;99.90;;;;;;4993269;28;19925;-67
2022/10/04 09:37:17;;;;;;;;;;;14.40;99.90;;;;;;4993391;28;19930;-67
2022/10/04 09:39:52;;;;;;;;;;;14.60;99.90;;;;;;4992663;28;19938;-70
2022/10/04 09:42:27;;;;;;;;;;;14.80;99.90;;;;;;4992445;28;19926;-67
2022/10/04 09:45:16;;;;;;;;;;;14.90;99.90;;;;;;4992834;28;19984;-68
2022/10/04 09:47:44;;;;;;;;;;;15.00;99.90;;;;;;4993154;28;19926;-67
2022/10/04 09:50:25;;;;;;;;;;;15.20;99.90;;;;;;4960696;28;20385;-68
2022/10/04 09:52:57;;;;;;;;;;;15.30;99.90;;;;;;4954164;28;19930;-67
2022/10/04 09:55:33;;;;;;;;;;;15.50;99.90;;;;;;4954076;29;20393;-66
2022/10/04 09:58:10;;;;;;;;;;;15.60;99.90;;;;;;4954269;28;19926;-69
2022/10/04 10:00:44;;;;;;;;;;;15.80;99.90;;;;;;4954073;28;19926;-68
2022/10/04 10:03:22;;;;;;;;;;;15.90;99.90;;;;;;4957037;28;20021;-68
2022/10/04 10:05:56;;;;;;;;;;;16.00;99.90;;;;;;4973302;28;19926;-68
2022/10/04 10:08:27;;;;;;;;;;;16.20;99.90;;;;;;4972773;28;19930;-68
2022/10/04 10:13:59;;;;;;;;;;;16.50;99.90;;;;;;4971873;28;19933;-68
2022/10/04 10:16:39;;;;;;;;;;;16.60;99.90;;;;;;4972904;28;19938;-68
2022/10/04 10:19:16;;;;;;;;;;;16.80;99.90;;;;;;4953656;29;19933;-67
2022/10/04 10:22:00;;;;;;;;;;;17.00;99.90;;;;;;4953496;28;19926;-67
2022/10/04 10:24:44;;;;;;;;;;;17.10;99.90;;;;;;4953082;29;19926;-68
2022/10/04 10:27:32;;;;;;;;;;;17.40;99.90;;;;;;4953551;29;19930;-68
2022/10/04 10:30:22;;;;;;;;;;;17.80;99.90;;;;;;4946416;29;19981;-68
2022/10/04 10:33:08;;;;;;;;;;;22.30;99.90;;;;;;4953078;28;19926;-68
2022/10/04 10:35:46;;;;;;;;;;;27.70;99.90;;;;;;4953374;29;20361;-67
2022/10/04 10:38:31;;;;;;;;;;;30.20;99.90;;;;;;4953266;29;20381;-69
2022/10/04 10:41:06;;;;;;;;;;;32.10;99.90;;;;;;4952924;28;20393;-68
2022/10/04 10:43:38;;;;;;;;;;;33.30;99.90;;;;;;4953127;29;19926;-68
2022/10/04 10:46:15;;;;;;;;;;;33.90;99.90;;;;;;4953121;29;19926;-69
2022/10/04 10:48:52;;;;;;;;;;;33.80;99.90;;;;;;4953505;29;19927;-70
2022/10/04 10:51:33;;;;;;;;;;;34.60;99.90;;;;;;4953090;28;19926;-69
2022/10/04 10:54:12;;;;;;;;;;;35.40;99.90;;;;;;4958506;28;19932;-69
2022/10/04 10:56:54;;;;;;;;;;;35.50;99.90;;;;;;4972406;28;19930;-68
2022/10/04 10:59:48;;;;;;;;;;;35.80;99.90;;;;;;4972243;28;19926;-68
2022/10/04 11:02:28;;;;;;;;;;;35.40;99.90;;;;;;4971951;28;19926;-67
2022/10/04 11:05:07;;;;;;;;;;;35.70;99.90;;;;;;4971862;28;19934;-68
2022/10/04 11:07:42;;;;;;;;;;;34.70;99.90;;;;;;4972076;28;19973;-68
2022/10/04 11:10:33;;;;;;;;;;;33.40;99.90;;;;;;4972169;28;19926;-69
2022/10/04 11:13:10;;;;;;;;;;;33.80;99.90;;;;;;4987827;28;19933;-68
2022/10/04 11:15:50;;;;;;;;;;;34.80;99.90;;;;;;4972032;28;19930;-68
2022/10/04 11:18:49;;;;;;;;;;;36.60;99.90;;;;;;4972289;28;20020;-69
2022/10/04 11:21:41;;;;;;;;;;;36.90;99.90;;;;;;4971780;28;19933;-70
2022/10/04 11:24:35;;;;;;;;;;;37.80;99.90;;;;;;4971915;28;19930;-68
2022/10/04 11:27:11;;;;;;;;;;;38.20;99.90;;;;;;4971599;28;19930;-68
2022/10/04 11:29:45;;;;;;;;;;;38.10;99.90;;;;;;4971453;28;19929;-68
2022/10/04 11:32:26;;;;;;;;;;;39.60;99.90;;;;;;4971573;28;19930;-68
2022/10/04 11:35:13;;;;;;;;;;;39.70;99.90;;;;;;4972064;28;20451;-69
2022/10/04 11:37:52;;;;;;;;;;;40.60;99.90;;;;;;4971704;28;19926;-68
2022/10/04 11:40:28;;;;;;;;;;;41.50;99.90;;;;;;4971889;28;19933;-69
2022/10/04 11:43:10;;;;;;;;;;;42.10;99.90;;;;;;4971850;28;19973;-69
2022/10/04 11:45:55;;;;;;;;;;;41.70;99.90;;;;;;4971966;28;19957;-68
2022/10/04 11:48:26;;;;;;;;;;;41.70;99.90;;;;;;4971961;28;19937;-68
2022/10/04 11:51:05;;;;;;;;;;;40.90;99.40;;;;;;4971653;28;20336;-68
2022/10/04 11:53:53;;;;;;;;;;;40.70;99.80;;;;;;4971371;28;19933;-68
2022/10/04 11:56:28;;;;;;;;;;;40.40;99.10;;;;;;4983193;28;19972;-68
2022/10/04 11:59:06;;;;;;;;;;;39.20;99.20;;;;;;4971550;28;19933;-68
2022/10/04 12:01:45;;;;;;;;;;;38.90;99.00;;;;;;4971750;28;19926;-67
2022/10/04 12:04:45;;;;;;;;;;;37.50;98.90;;;;;;4972271;28;19930;-69
2022/10/04 12:07:25;;;;;;;;;;;36.50;99.50;;;;;;4919668;29;19973;-69
2022/10/04 12:09:58;;;;;;;;;;;37.50;99.90;;;;;;4935252;29;19941;-68
2022/10/04 12:12:38;;;;;;;;;;;38.70;99.80;;;;;;4949809;28;19926;-68
2022/10/04 12:15:23;;;;;;;;;;;38.70;97.90;;;;;;4975196;28;19926;-69
2022/10/04 12:18:05;;;;;;;;;;;38.60;98.30;;;;;;4991573;28;19946;-69
2022/10/04 12:20:38;;;;;;;;;;;39.50;98.80;;;;;;4967606;28;19930;-69
2022/10/04 12:23:21;;;;;;;;;;;40.10;98.60;;;;;;4955682;29;19933;-68
2022/10/04 12:25:53;;;;;;;;;;;39.60;98.20;;;;;;4955880;29;19933;-69
2022/10/04 12:28:28;;;;;;;;;;;39.70;98.30;;;;;;4955801;29;19934;-67
2022/10/04 12:31:03;;;;;;;;;;;37.20;97.70;;;;;;4972874;28;19926;-69
2022/10/04 12:33:34;;;;;;;;;;;39.70;97.70;;;;;;4974358;28;19980;-68
2022/10/04 12:36:12;;;;;;;;;;;39.60;97.80;;;;;;4975114;28;19927;-70
2022/10/04 12:38:46;;;;;;;;;;;40.90;97.80;;;;;;4975001;28;19965;-67
2022/10/04 12:41:23;;;;;;;;;;;39.40;96.50;;;;;;4974429;28;20395;-69
2022/10/04 12:43:59;;;;;;;;;;;39.40;97.20;;;;;;4974727;28;19933;-68
2022/10/04 12:46:31;;;;;;;;;;;39.70;97.10;;;;;;4974687;28;19950;-70
2022/10/04 12:49:19;;;;;;;;;;;38.40;97.20;;;;;;4974318;28;19942;-68
2022/10/04 12:51:52;;;;;;;;;;;38.50;96.90;;;;;;4967966;28;19933;-73
2022/10/04 12:54:26;;;;;;;;;;;37.80;97.60;;;;;;4974280;28;20348;-74
2022/10/04 12:57:01;;;;;;;;;;;36.40;97.50;;;;;;4974539;28;19930;-71
2022/10/04 12:59:35;;;;;;;;;;;35.70;97.40;;;;;;4974479;28;19926;-74
2022/10/04 13:02:07;;;;;;;;;;;35.80;98.60;;;;;;4974477;28;19977;-70
2022/10/04 13:04:37;;;;;;;;;;;37.20;98.10;;;;;;4973896;28;19930;-69
2022/10/04 13:07:19;;;;;;;;;;;37.30;97.70;;;;;;4974123;28;20341;-69
2022/10/04 13:09:50;;;;;;;;;;;37.60;98.20;;;;;;4957823;28;19926;-67
2022/10/04 13:12:24;;;;;;;;;;;37.20;97.20;;;;;;4974132;28;20381;-70
2022/10/04 13:15:06;;;;;;;;;;;37.10;97.10;;;;;;4974430;28;20296;-70
2022/10/04 13:17:39;;;;;;;;;;;37.60;97.20;;;;;;4974036;28;19936;-69
2022/10/04 13:20:21;;;;;;;;;;;37.10;96.30;;;;;;4973946;28;19926;-69
2022/10/04 13:22:50;;;;;;;;;;;37.00;96.70;;;;;;4965890;28;19974;-70
2022/10/04 13:25:24;;;;;;;;;;;36.80;96.30;;;;;;4974209;28;19933;-68
2022/10/04 13:27:54;;;;;;;;;;;36.20;96.60;;;;;;4973975;28;19926;-69
2022/10/04 13:30:26;;;;;;;;;;;35.70;96.10;;;;;;4974045;28;19926;-69
2022/10/04 13:33:00;;;;;;;;;;;35.90;96.90;;;;;;4974121;28;19930;-70
2022/10/04 13:35:30;;;;;;;;;;;35.40;96.50;;;;;;4974075;28;20381;-69
2022/10/04 13:38:16;;;;;;;;;;;35.40;95.90;;;;;;4974513;28;20029;-70
2022/10/04 13:40:53;;;;;;;;;;;36.00;96.40;;;;;;4974342;28;19930;-69
2022/10/04 13:43:38;;;;;;;;;;;35.30;96.50;;;;;;4974238;28;19980;-69
2022/10/04 13:46:10;;;;;;;;;;;35.50;96.80;;;;;;4973599;28;20286;-70
2022/10/04 13:48:41;;;;;;;;;;;35.50;96.30;;;;;;4973800;28;19930;-69
2022/10/04 13:51:17;;;;;;;;;;;34.40;96.50;;;;;;4973398;28;19933;-70
2022/10/04 13:56:48;;;;;;;;;;;34.90;96.50;;;;;;4972789;28;20428;-71
2022/10/04 13:59:18;;;;;;;;;;;34.60;96.60;;;;;;4971734;28;19937;-74
2022/10/04 14:02:09;;;;;;;;;;;35.00;96.70;;;;;;4972814;28;19953;-72
2022/10/04 14:04:46;;;;;;;;;;;35.40;96.30;;;;;;4968002;28;19926;-74
2022/10/04 14:07:43;;;;;;;;;;;35.10;96.10;;;;;;4973096;28;19930;-77
2022/10/04 14:10:28;;;;;;;;;;;35.50;96.20;;;;;;4898519;29;19927;-70
2022/10/04 14:13:06;;;;;;;;;;;35.00;96.80;;;;;;4964084;28;20360;-69
2022/10/04 14:15:49;;;;;;;;;;;34.90;95.60;;;;;;4973089;28;19930;-69
2022/10/04 14:18:35;;;;;;;;;;;34.70;95.90;;;;;;4956148;28;19954;-68
2022/10/04 14:21:10;;;;;;;;;;;34.30;96.50;;;;;;4952496;29;19930;-70
2022/10/04 14:23:52;;;;;;;;;;;33.90;96.40;;;;;;4957328;28;19930;-69
2022/10/04 14:26:30;;;;;;;;;;;33.50;96.10;;;;;;4972549;28;19936;-69
2022/10/04 14:29:15;;;;;;;;;;;32.50;96.50;;;;;;4970863;28;19926;-68
2022/10/04 14:31:56;;;;;;;;;;;32.70;96.90;;;;;;4972093;28;19933;-72
2022/10/04 14:34:41;;;;;;;;;;;33.90;96.50;;;;;;4971845;28;19926;-71
2022/10/04 14:37:18;;;;;;;;;;;34.30;96.30;;;;;;4959164;28;19926;-73
2022/10/04 14:39:58;;;;;;;;;;;34.70;96.30;;;;;;4972048;28;19926;-70
2022/10/04 14:42:38;;;;;;;;;;;34.90;96.10;;;;;;4971771;28;19928;-70
2022/10/04 14:45:23;;;;;;;;;;;34.40;95.90;;;;;;4972264;28;19926;-73
2022/10/04 14:48:05;;;;;;;;;;;34.80;95.90;;;;;;4971475;28;20393;-70
2022/10/04 14:50:37;;;;;;;;;;;35.10;96.30;;;;;;4955419;28;19926;-70
2022/10/04 14:53:11;;;;;;;;;;;34.10;96.50;;;;;;4971749;28;19937;-71
2022/10/04 14:56:02;;;;;;;;;;;33.40;96.80;;;;;;4972715;28;19926;-71
2022/10/04 14:58:33;;;;;;;;;;;32.90;97.10;;;;;;4972701;28;19950;-71
2022/10/04 15:01:27;;;;;;;;;;;32.60;97.30;;;;;;4971946;28;19934;-71
2022/10/04 15:04:10;;;;;;;;;;;32.10;97.70;;;;;;4926878;28;19934;-70
2022/10/04 15:06:41;;;;;;;;;;;31.40;97.60;;;;;;4970795;28;19984;-71
2022/10/04 15:09:24;;;;;;;;;;;31.00;98.20;;;;;;4971454;28;20345;-72
2022/10/04 15:11:54;;;;;;;;;;;31.30;98.10;;;;;;4971395;28;19926;-69
2022/10/04 15:14:35;;;;;;;;;;;31.20;98.40;;;;;;4971113;28;19972;-71
2022/10/04 15:17:05;;;;;;;;;;;31.30;98.30;;;;;;4971506;28;19938;-71
2022/10/04 15:19:35;;;;;;;;;;;30.80;98.90;;;;;;4971161;28;19933;-70
2022/10/04 15:22:11;;;;;;;;;;;30.80;99.20;;;;;;4971363;28;20025;-70
2022/10/04 15:24:46;;;;;;;;;;;30.30;99.50;;;;;;4971174;28;20412;-71
2022/10/04 15:27:35;;;;;;;;;;;29.70;99.60;;;;;;4971334;28;19926;-73
2022/10/04 15:30:04;;;;;;;;;;;29.50;99.90;;;;;;4971380;28;19929;-70
2022/10/04 15:32:35;;;;;;;;;;;29.70;99.90;;;;;;4971008;28;20420;-72
2022/10/04 15:35:08;;;;;;;;;;;29.90;99.90;;;;;;4971445;28;19926;-71
2022/10/04 15:37:42;;;;;;;;;;;29.50;99.90;;;;;;5004095;28;19933;-71
2022/10/04 15:40:19;;;;;;;;;;;29.10;99.90;;;;;;4972360;28;20153;-70
2022/10/04 15:42:58;;;;;;;;;;;29.10;99.90;;;;;;4974808;28;19930;-71
2022/10/04 15:45:37;;;;;;;;;;;28.70;99.90;;;;;;4975228;28;19934;-69
2022/10/04 15:48:10;;;;;;;;;;;28.50;99.90;;;;;;4974894;28;19945;-69
2022/10/04 15:50:40;;;;;;;;;;;28.40;99.90;;;;;;4974827;28;19934;-71
2022/10/04 15:53:18;;;;;;;;;;;28.40;99.90;;;;;;4975000;28;19926;-72
2022/10/04 15:55:54;;;;;;;;;;;28.70;99.90;;;;;;5007513;28;19937;-71
2022/10/04 15:58:45;;;;;;;;;;;28.70;99.90;;;;;;4964470;28;19931;-71
2022/10/04 16:01:23;;;;;;;;;;;28.70;99.90;;;;;;4949920;28;19926;-71
2022/10/04 16:03:53;;;;;;;;;;;28.30;99.90;;;;;;4974616;28;19926;-72
2022/10/04 16:06:22;;;;;;;;;;;28.20;99.90;;;;;;4975016;28;19933;-71
2022/10/04 16:09:04;;;;;;;;;;;27.70;99.90;;;;;;4974469;28;19926;-72
2022/10/04 16:11:38;;;;;;;;;;;27.20;99.90;;;;;;4971077;28;19927;-71
2022/10/04 16:14:24;;;;;;;;;;;26.40;99.90;;;;;;4974827;28;19926;-72
2022/10/04 16:16:58;;;;;;;;;;;25.70;99.90;;;;;;4975135;28;19926;-72
2022/10/04 16:19:31;;;;;;;;;;;25.00;99.90;;;;;;4974409;28;19926;-71
2022/10/04 16:22:08;;;;;;;;;;;24.50;99.90;;;;;;4974683;28;19929;-70
2022/10/04 16:24:40;;;;;;;;;;;24.00;99.90;;;;;;4974377;28;19926;-70
2022/10/04 16:27:19;;;;;;;;;;;23.50;99.90;;;;;;4974749;28;19926;-72
2022/10/04 16:29:52;;;;;;;;;;;23.00;99.90;;;;;;4973924;28;20040;-72
2022/10/04 16:32:21;;;;;;;;;;;22.70;99.90;;;;;;4974053;28;19926;-71
2022/10/04 16:34:50;;;;;;;;;;;22.40;99.90;;;;;;4974287;28;19958;-73
2022/10/04 16:37:20;;;;;;;;;;;22.10;99.90;;;;;;4974645;28;19926;-72
2022/10/04 16:40:05;;;;;;;;;;;21.70;99.90;;;;;;4974028;28;19926;-72
2022/10/04 16:42:45;;;;;;;;;;;21.50;99.90;;;;;;4974075;28;20447;-70
2022/10/04 16:45:31;;;;;;;;;;;21.30;99.90;;;;;;4974332;28;20308;-71
2022/10/04 16:48:00;;;;;;;;;;;21.00;99.90;;;;;;4974173;28;19934;-72
2022/10/04 16:50:45;;;;;;;;;;;20.70;99.90;;;;;;4973472;28;20034;-73
2022/10/04 16:53:20;;;;;;;;;;;20.50;99.90;;;;;;4972490;28;20349;-72
2022/10/04 16:55:52;;;;;;;;;;;20.30;99.90;;;;;;4974130;28;19926;-72
2022/10/04 16:58:40;;;;;;;;;;;20.00;99.90;;;;;;4973680;28;19933;-71
2022/10/04 17:01:37;;;;;;;;;;;19.70;99.90;;;;;;4973163;28;20032;-70
2022/10/04 17:04:16;;;;;;;;;;;19.50;99.90;;;;;;4973372;28;19926;-74
2022/10/04 17:06:47;;;;;;;;;;;19.20;99.90;;;;;;4973862;28;19926;-71
2022/10/04 17:09:18;;;;;;;;;;;18.90;99.90;;;;;;4973204;28;19926;-72
2022/10/04 17:11:47;;;;;;;;;;;18.60;99.90;;;;;;4973491;28;19930;-73
2022/10/04 17:14:30;;;;;;;;;;;18.40;99.90;;;;;;4973320;28;19926;-70
2022/10/04 17:16:59;;;;;;;;;;;18.30;99.90;;;;;;4973978;28;19951;-69
2022/10/04 17:19:31;;;;;;;;;;;18.20;99.90;;;;;;4973304;28;19926;-72
2022/10/04 17:22:05;;;;;;;;;;;18.10;99.90;;;;;;4973472;28;19926;-72
2022/10/04 17:24:42;;;;;;;;;;;18.10;99.90;;;;;;4973095;28;19926;-71
2022/10/04 17:27:22;;;;;;;;;;;18.00;99.90;;;;;;4973490;28;19943;-71
2022/10/04 17:29:54;;;;;;;;;;;17.80;99.90;;;;;;4972794;28;19955;-70
2022/10/04 17:32:24;;;;;;;;;;;17.80;99.90;;;;;;4973114;28;19991;-69
2022/10/04 17:35:08;;;;;;;;;;;17.70;99.90;;;;;;4972925;28;19948;-71
2022/10/04 17:37:38;;;;;;;;;;;17.60;99.90;;;;;;4972776;28;19937;-70
2022/10/04 17:40:22;;;;;;;;;;;17.50;99.90;;;;;;4972814;28;20267;-70
2022/10/04 17:42:52;;;;;;;;;;;17.40;99.90;;;;;;4972283;28;19954;-71
2022/10/04 17:45:32;;;;;;;;;;;17.40;99.90;;;;;;4973236;28;19952;-70
2022/10/04 17:56:31;;;;;;;;;;;16.90;99.90;;;;;;4972799;28;19929;-71
2022/10/04 17:58:59;;;;;;;;;;;16.90;99.90;;;;;;4972372;28;19926;-71
2022/10/04 18:01:28;;;;;;;;;;;16.80;99.90;;;;;;4972335;28;20313;-72
2022/10/04 18:03:59;;;;;;;;;;;16.70;99.90;;;;;;4972183;28;20421;-71
2022/10/04 18:06:29;;;;;;;;;;;16.60;99.90;;;;;;4972275;28;19930;-71
2022/10/04 18:09:00;;;;;;;;;;;16.50;99.90;;;;;;4971112;28;21554;-70
2022/10/04 18:11:30;;;;;;;;;;;16.40;99.90;;;;;;4962087;28;19926;-70
2022/10/04 18:14:01;;;;;;;;;;;16.40;99.90;;;;;;4952647;29;20277;-70
2022/10/04 18:16:29;;;;;;;;;;;16.30;99.90;;;;;;4951984;28;19973;-70
2022/10/04 18:18:56;;;;;;;;;;;16.20;99.90;;;;;;4952213;29;20397;-70
2022/10/04 18:21:26;;;;;;;;;;;16.10;99.90;;;;;;4951412;29;19933;-70
2022/10/04 18:23:58;;;;;;;;;;;15.90;99.90;;;;;;4969753;28;19930;-70